Terminal Aerodrome Forecast
Issued by NWS Grand Forks, ND

Home | Current Version | Previous Version | Text Only | Print | Product List | Glossary Off
Versions: 1 2 3 4 5 6 7 8 9 10 11 12 13 14 15 16

000
FTUS43 KFGF 190200 AAA
TAFGFK
TAF AMD
KGFK 190227Z 1902/1924 32015G24KT P6SM SCT015 OVC035
     FM190500 32020G29KT P6SM OVC025
     FM191700 31020G29KT P6SM BKN050=

USA.gov is the U.S. government's official web portal to all federal, state and local government web resources and services.